createdAt,value
2023-02-24T00:04:59.767Z,95252.22
2023-02-24T00:10:01.283Z,95246.97
2023-02-24T00:15:03.656Z,95243.28
2023-02-24T00:20:05.654Z,95241.53
2023-02-24T00:25:07.648Z,95238.75
2023-02-24T00:30:09.973Z,95234.31
2023-02-24T00:35:11.442Z,95239.19
2023-02-24T00:40:13.195Z,95230.28
2023-02-24T00:45:14.766Z,95222.16
2023-02-24T00:50:16.593Z,95214.16
2023-02-24T00:55:18.095Z,95216.13
2023-02-24T01:00:20.071Z,95215.78
2023-02-24T01:05:21.652Z,95211.66
2023-02-24T01:10:23.406Z,95212.84
2023-02-24T01:15:25.095Z,95209.31
2023-02-24T01:20:26.618Z,95207.81
2023-02-24T01:25:28.161Z,95200.66
2023-02-24T01:30:29.645Z,95195.53
2023-02-24T01:35:32.322Z,95193.28
2023-02-24T01:40:33.982Z,95189.91
2023-02-24T01:45:36.063Z,95188.59
2023-02-24T01:50:38.775Z,95194.94
2023-02-24T01:55:46.932Z,95186.59
2023-02-24T02:00:49.957Z,95185.50
2023-02-24T02:05:54.118Z,95169.78
2023-02-24T02:11:00.846Z,95168.56
2023-02-24T02:16:02.338Z,95168.81
2023-02-24T02:21:15.679Z,95175.03
2023-02-24T02:27:05.307Z,95163.41
2023-02-24T02:32:25.210Z,95155.78
2023-02-24T02:37:26.693Z,95164.84
2023-02-24T02:42:30.581Z,95160.28
2023-02-24T02:47:42.041Z,95160.50
2023-02-24T02:52:51.979Z,95162.78
2023-02-24T02:57:55.172Z,95163.63
2023-02-24T03:03:07.528Z,95160.31
2023-02-24T03:08:11.024Z,95154.22
2023-02-24T03:13:13.760Z,95152.53
2023-02-24T03:18:29.459Z,95142.00
2023-02-24T03:23:32.450Z,95144.72
2023-02-24T03:28:42.060Z,95147.25
2023-02-24T03:34:02.778Z,95143.75
2023-02-24T03:39:06.728Z,95138.84
2023-02-24T03:44:12.910Z,95141.00
2023-02-24T03:49:15.311Z,95133.47
2023-02-24T03:54:18.538Z,95133.34
2023-02-24T03:59:27.487Z,95121.53
2023-02-24T04:04:34.023Z,95116.41
2023-02-24T04:09:56.460Z,95120.59
2023-02-24T04:15:20.336Z,95117.84
2023-02-24T04:20:26.115Z,95123.69
2023-02-24T04:25:31.754Z,95123.81
2023-02-24T04:30:40.629Z,95122.97
2023-02-24T04:35:45.664Z,95112.19
2023-02-24T04:40:47.222Z,95105.19
2023-02-24T04:45:49.907Z,95088.44
2023-02-24T04:50:51.442Z,95095.84
2023-02-24T04:55:53.481Z,95088.06
2023-02-24T05:00:55.465Z,95087.00
2023-02-24T05:05:59.120Z,95081.44
2023-02-24T05:11:00.957Z,95073.75
2023-02-24T05:16:08.437Z,95080.25
2023-02-24T05:21:15.802Z,95083.41
2023-02-24T05:26:19.755Z,95073.66
2023-02-24T05:31:24.739Z,95068.03
2023-02-24T05:36:29.404Z,95068.28
2023-02-24T05:41:30.889Z,95071.00
2023-02-24T05:46:35.334Z,95067.31
2023-02-24T05:51:40.375Z,95060.38
2023-02-24T05:56:41.976Z,95072.03
2023-02-24T06:01:44.018Z,95070.69
2023-02-24T06:06:45.536Z,95077.28
2023-02-24T06:11:47.079Z,95070.91
2023-02-24T06:16:48.684Z,95073.03
2023-02-24T06:21:50.215Z,95060.28
2023-02-24T06:26:51.783Z,95071.84
2023-02-24T06:31:53.394Z,95070.75
2023-02-24T06:36:54.893Z,95063.59
2023-02-24T06:41:56.388Z,95056.38
2023-02-24T06:46:58.593Z,95054.34
2023-02-24T06:52:00.455Z,95056.84
2023-02-24T06:57:02.122Z,95057.75
2023-02-24T07:02:03.638Z,95054.16
2023-02-24T07:07:05.132Z,95047.91
2023-02-24T07:12:06.667Z,95041.94
2023-02-24T07:17:08.557Z,95038.03
2023-02-24T07:22:10.715Z,95030.75
2023-02-24T07:27:14.963Z,95038.25
2023-02-24T07:32:17.161Z,95027.66
2023-02-24T07:37:18.667Z,95010.41
2023-02-24T07:42:20.166Z,95007.06
2023-02-24T07:47:25.914Z,95011.00
2023-02-24T07:52:27.444Z,94998.88
2023-02-24T07:57:28.978Z,94996.16
2023-02-24T08:02:30.495Z,94979.41
2023-02-24T08:07:32.063Z,94968.91
2023-02-24T08:12:33.600Z,94962.81
2023-02-24T08:17:35.524Z,94962.00
2023-02-24T08:22:36.973Z,94946.09
2023-02-24T08:27:38.421Z,94947.88
2023-02-24T08:32:42.928Z,94946.59
2023-02-24T08:37:54.892Z,94929.22
2023-02-24T08:43:01.320Z,94929.34
2023-02-24T08:48:02.868Z,94918.41
2023-02-24T08:53:04.350Z,94923.13
2023-02-24T08:58:05.825Z,94917.88
2023-02-24T09:03:08.304Z,94909.88
2023-02-24T09:08:09.803Z,94909.94
2023-02-24T09:13:11.311Z,94901.16
2023-02-24T09:18:12.822Z,94912.28
2023-02-24T09:23:14.400Z,94907.34
2023-02-24T09:28:21.491Z,94902.16
2023-02-24T09:33:27.464Z,94894.13
2023-02-24T09:38:30.450Z,94890.59
2023-02-24T09:43:36.504Z,94876.72
2023-02-24T09:48:44.156Z,94876.50
2023-02-24T09:53:45.645Z,94870.69
2023-02-24T09:59:04.996Z,94865.41
2023-02-24T10:04:25.470Z,94861.31
2023-02-24T10:09:30.864Z,94848.22
2023-02-24T10:15:00.372Z,94848.50
2023-02-24T10:20:14.987Z,94832.81
2023-02-24T10:25:29.304Z,94836.09
2023-02-24T10:30:39.724Z,94822.41
2023-02-24T10:35:41.274Z,94818.72
2023-02-24T10:40:53.306Z,94805.13
2023-02-24T10:45:55.401Z,94795.69
2023-02-24T10:50:57.036Z,94790.84
2023-02-24T10:55:59.933Z,94786.78
2023-02-24T11:01:12.039Z,94774.03
2023-02-24T11:06:32.632Z,94770.75
2023-02-24T11:11:34.900Z,94769.28
2023-02-24T11:16:51.578Z,94752.41
2023-02-24T11:21:55.577Z,94737.84
2023-02-24T11:26:57.568Z,94720.72
2023-02-24T11:32:23.617Z,94717.41
2023-02-24T11:37:46.299Z,94707.69
2023-02-24T11:43:06.135Z,94696.19
2023-02-24T11:48:17.689Z,94685.88
2023-02-24T11:53:32.405Z,94681.31
2023-02-24T11:58:45.060Z,94664.78
2023-02-24T12:03:55.488Z,94663.91
2023-02-24T12:09:03.476Z,94647.03
2023-02-24T12:14:21.453Z,94643.84
2023-02-24T12:19:31.573Z,94637.25
2023-02-24T12:24:36.381Z,94630.91
2023-02-24T12:29:37.837Z,94622.78
2023-02-24T12:34:56.764Z,94615.06
2023-02-24T12:40:01.091Z,94607.81
2023-02-24T12:45:14.578Z,94589.75
2023-02-24T12:50:22.226Z,94584.34
2023-02-24T12:55:34.816Z,94583.34
2023-02-24T13:00:45.407Z,94574.06
2023-02-24T13:06:18.872Z,94575.63
2023-02-24T13:11:42.106Z,94562.97
2023-02-24T13:16:43.732Z,94559.66
2023-02-24T13:21:56.935Z,94548.09
2023-02-24T13:27:14.358Z,94540.41
2023-02-24T13:32:45.157Z,94527.06
2023-02-24T13:37:48.322Z,94524.19
2023-02-24T13:43:00.561Z,94514.38
2023-02-24T13:48:22.093Z,94510.09
2023-02-24T13:53:33.241Z,94510.81
2023-02-24T13:58:40.376Z,94495.31
2023-02-24T14:03:46.341Z,94500.38
2023-02-24T14:08:52.784Z,94488.72
2023-02-24T14:13:56.454Z,94485.88
2023-02-24T14:19:02.562Z,94480.09
2023-02-24T14:24:12.191Z,94472.25
2023-02-24T14:29:18.951Z,94473.09
2023-02-24T14:34:29.629Z,94472.41
2023-02-24T14:39:32.500Z,94478.69
2023-02-24T14:44:34.196Z,94466.84
2023-02-24T14:49:36.139Z,94471.38
2023-02-24T14:54:51.255Z,94461.16
2023-02-24T14:59:57.327Z,94459.88
2023-02-24T15:04:59.760Z,94461.13
2023-02-24T15:10:03.483Z,94448.78
2023-02-24T15:15:19.957Z,94438.50
2023-02-24T15:20:38.609Z,94436.28
2023-02-24T15:25:45.851Z,94436.50
2023-02-24T15:31:06.224Z,94429.53
2023-02-24T15:36:17.977Z,94427.03
2023-02-24T15:41:19.857Z,94422.94
2023-02-24T15:46:23.184Z,94428.47
2023-02-24T15:51:41.231Z,94434.66
2023-02-24T15:56:46.657Z,94429.44
2023-02-24T16:01:48.387Z,94426.16
2023-02-24T16:06:53.607Z,94423.94
2023-02-24T16:11:55.373Z,94422.47
2023-02-24T16:16:57.146Z,94427.13
2023-02-24T16:21:58.626Z,94440.03
2023-02-24T16:27:00.178Z,94442.00
2023-02-24T16:32:01.784Z,94437.19
2023-02-24T16:37:03.642Z,94428.31
2023-02-24T16:42:05.372Z,94437.41
2023-02-24T16:47:11.878Z,94448.00
2023-02-24T16:52:13.811Z,94448.53
2023-02-24T16:57:15.281Z,94449.25
2023-02-24T17:02:21.604Z,94447.34
2023-02-24T17:07:23.206Z,94449.00
2023-02-24T17:12:24.692Z,94437.97
2023-02-24T17:17:26.228Z,94448.19
2023-02-24T17:22:27.785Z,94444.78
2023-02-24T17:27:29.272Z,94445.16
2023-02-24T17:32:30.743Z,94451.91
2023-02-24T17:37:32.278Z,94449.44
2023-02-24T17:42:34.279Z,94449.06
2023-02-24T17:47:36.194Z,94452.16
2023-02-24T17:52:37.799Z,94450.59
2023-02-24T17:57:39.317Z,94437.19
2023-02-24T18:02:41.559Z,94455.78
2023-02-24T18:07:43.146Z,94455.81
2023-02-24T18:12:44.687Z,94455.38
2023-02-24T18:17:46.252Z,94458.47
2023-02-24T18:22:47.777Z,94463.09
2023-02-24T18:27:49.276Z,94455.47
2023-02-24T18:32:50.899Z,94446.88
2023-02-24T18:37:52.643Z,94443.78
2023-02-24T18:42:55.340Z,94441.31
2023-02-24T18:47:56.856Z,94449.63
2023-02-24T18:52:58.330Z,94443.94
2023-02-24T18:57:59.846Z,94447.06
2023-02-24T19:03:01.458Z,94442.13
2023-02-24T19:08:03.357Z,94449.72
2023-02-24T19:13:06.837Z,94447.44
2023-02-24T19:18:08.451Z,94448.88
2023-02-24T19:23:10.643Z,94439.72
2023-02-24T19:28:12.161Z,94432.47
2023-02-24T19:33:13.813Z,94431.78
2023-02-24T19:38:17.843Z,94437.75
2023-02-24T19:43:19.395Z,94432.78
2023-02-24T19:48:20.877Z,94424.09
2023-02-24T19:53:22.378Z,94435.66
2023-02-24T19:58:23.831Z,94435.88
2023-02-24T20:03:25.360Z,94438.56
2023-02-24T20:08:26.904Z,94441.22
2023-02-24T20:13:29.312Z,94441.28
2023-02-24T20:18:31.438Z,94446.56
2023-02-24T20:23:33.049Z,94438.44
2023-02-24T20:28:34.518Z,94447.72
2023-02-24T20:33:36.059Z,94450.28
2023-02-24T20:38:38.235Z,94431.88
2023-02-24T20:43:39.779Z,94437.59
2023-02-24T20:48:41.508Z,94430.53
2023-02-24T20:53:56.114Z,94432.66
2023-02-24T20:59:01.323Z,94430.72
2023-02-24T21:04:03.740Z,94424.13
2023-02-24T21:09:05.403Z,94416.00
2023-02-24T21:14:06.948Z,94424.72
2023-02-24T21:19:08.450Z,94425.59
2023-02-24T21:24:09.979Z,94431.53
2023-02-24T21:29:11.674Z,94428.59
2023-02-24T21:34:15.578Z,94428.38
2023-02-24T21:39:17.105Z,94433.84
2023-02-24T21:44:18.622Z,94434.81
2023-02-24T21:49:20.196Z,94442.91
2023-02-24T21:54:21.831Z,94436.31
2023-02-24T21:59:23.280Z,94432.97
2023-02-24T22:04:24.801Z,94446.94
2023-02-24T22:09:26.269Z,94434.25
2023-02-24T22:14:27.837Z,94442.91
2023-02-24T22:19:29.382Z,94433.22
2023-02-24T22:24:30.886Z,94430.41
2023-02-24T22:29:32.342Z,94449.03
2023-02-24T22:34:33.827Z,94448.69
2023-02-24T22:39:35.312Z,94439.78
2023-02-24T22:44:39.674Z,94445.91
2023-02-24T22:49:41.282Z,94449.00
2023-02-24T22:54:43.692Z,94452.78
2023-02-24T22:59:45.260Z,94454.13
2023-02-24T23:04:46.785Z,94446.56
2023-02-24T23:09:48.292Z,94470.44
2023-02-24T23:14:49.785Z,94458.91
2023-02-24T23:19:51.273Z,94469.28
2023-02-24T23:24:52.727Z,94485.28
2023-02-24T23:29:54.186Z,94501.59
2023-02-24T23:34:55.738Z,94513.94
2023-02-24T23:39:57.269Z,94521.00
2023-02-24T23:44:58.728Z,94523.31
2023-02-24T23:50:00.266Z,94513.69
2023-02-24T23:55:01.810Z,94533.06
